Time;durP1;ratioP1;P1;durP2;ratioP2;P2;SDS_P1;SDS_P2;PMS_P1;PMS_P2;Temp;Humidity;BMP_temperature;BMP_pressure;BME280_temperature;BME280_humidity;BME280_pressure;Samples;Min_cycle;Max_cycle;Signal;HPM_P1;HPM_P2
2024/04/09 00:00:24;;;;;;;17.55;7.87;;;;;;;14.01;68.13;100600.94;1673287;86;21098;-72
2024/04/09 00:02:52;;;;;;;16.52;7.67;;;;;;;13.99;68.29;100603.59;1673468;86;21044;-74
2024/04/09 00:05:24;;;;;;;16.27;7.70;;;;;;;13.93;68.71;100595.12;1673340;85;21487;-73
2024/04/09 00:07:51;;;;;;;16.23;7.75;;;;;;;13.91;68.84;100595.02;1673380;85;21114;-74
2024/04/09 00:10:20;;;;;;;17.37;7.87;;;;;;;13.87;68.93;100597.36;1673566;86;21004;-75
2024/04/09 00:12:48;;;;;;;19.42;8.40;;;;;;;13.83;68.96;100602.98;1673134;84;21301;-74
2024/04/09 00:15:17;;;;;;;16.87;7.75;;;;;;;13.82;69.16;100605.42;1673152;86;21032;-74
2024/04/09 00:17:54;;;;;;;15.32;7.95;;;;;;;13.79;69.44;100609.98;1673294;85;21064;-73
2024/04/09 00:20:18;;;;;;;23.70;8.08;;;;;;;13.76;69.57;100606.80;1672535;86;21008;-75
2024/04/09 00:22:46;;;;;;;21.27;7.97;;;;;;;13.72;69.75;100602.25;1673351;86;21043;-74
2024/04/09 00:25:18;;;;;;;18.10;9.05;;;;;;;13.69;69.98;100598.55;1673638;84;21028;-73
2024/04/09 00:27:45;;;;;;;17.60;7.90;;;;;;;13.67;70.12;100603.42;1673494;85;21012;-74
2024/04/09 00:30:17;;;;;;;18.20;8.48;;;;;;;13.63;70.24;100600.22;1673276;86;21510;-74
2024/04/09 00:32:46;;;;;;;14.68;7.58;;;;;;;13.60;70.31;100599.80;1673512;85;21093;-74
2024/04/09 00:35:14;;;;;;;17.10;7.80;;;;;;;13.58;70.36;100595.88;1673229;86;21071;-74
2024/04/09 00:37:43;;;;;;;16.00;8.53;;;;;;;13.53;70.41;100605.30;1673301;86;21008;-74
2024/04/09 00:40:13;;;;;;;17.02;7.92;;;;;;;13.47;70.57;100608.91;1673501;85;21048;-73
2024/04/09 00:42:41;;;;;;;18.62;7.92;;;;;;;13.44;70.76;100609.86;1673382;85;21016;-73
2024/04/09 00:45:10;;;;;;;17.95;7.85;;;;;;;13.39;71.07;100609.12;1673274;86;21016;-75
2024/04/09 00:47:40;;;;;;;19.05;7.83;;;;;;;13.38;71.25;100611.55;1673524;86;21093;-73
2024/04/09 00:50:11;;;;;;;15.05;7.42;;;;;;;13.32;71.34;100615.99;1673301;86;21039;-74
2024/04/09 00:52:41;;;;;;;15.75;7.45;;;;;;;13.28;71.50;100607.84;1673531;86;21039;-74
2024/04/09 00:55:11;;;;;;;15.63;7.53;;;;;;;13.28;71.60;100612.50;1673251;86;21496;-74
2024/04/09 00:57:40;;;;;;;15.75;7.20;;;;;;;13.26;71.59;100611.86;1673292;86;21083;-74
2024/04/09 01:00:12;;;;;;;18.52;7.50;;;;;;;13.24;71.63;100612.07;1673354;86;21046;-75
2024/04/09 01:02:48;;;;;;;20.77;7.97;;;;;;;13.23;71.63;100610.37;1673313;86;21512;-72
2024/04/09 01:05:11;;;;;;;15.63;6.78;;;;;;;13.21;71.70;100608.89;1673073;86;21075;-73
2024/04/09 01:07:40;;;;;;;15.35;7.35;;;;;;;13.22;71.87;100610.06;1673522;86;21063;-74
2024/04/09 01:10:08;;;;;;;13.58;7.30;;;;;;;13.22;72.01;100605.09;1673474;86;21044;-74
2024/04/09 01:12:37;;;;;;;17.15;7.37;;;;;;;13.18;72.33;100610.16;1673550;86;20981;-73
2024/04/09 01:15:06;;;;;;;16.05;6.85;;;;;;;13.16;72.32;100610.02;1673231;86;21068;-73
2024/04/09 01:17:35;;;;;;;15.15;7.03;;;;;;;13.15;72.32;100611.08;1673481;85;21079;-74
2024/04/09 01:20:07;;;;;;;17.37;6.90;;;;;;;13.13;72.33;100607.16;1673318;86;21064;-72
2024/04/09 01:22:36;;;;;;;18.70;6.92;;;;;;;13.11;72.32;100602.92;1673318;86;21004;-74
2024/04/09 01:25:06;;;;;;;14.95;7.30;;;;;;;13.09;72.37;100605.03;1673753;84;21106;-74
2024/04/09 01:27:34;;;;;;;17.82;7.15;;;;;;;13.06;72.36;100610.95;1693469;85;21859;-73
2024/04/09 01:30:06;;;;;;;19.20;6.80;;;;;;;13.03;72.48;100610.00;1693683;85;20991;-73
2024/04/09 01:32:38;;;;;;;20.08;6.95;;;;;;;13.01;72.60;100610.20;1693666;84;21035;-73
2024/04/09 01:35:08;;;;;;;14.87;6.62;;;;;;;12.99;72.77;100611.76;1693615;84;21050;-73
2024/04/09 01:37:36;;;;;;;13.58;6.33;;;;;;;12.97;72.90;100613.87;1693628;84;21016;-73
2024/04/09 01:40:07;;;;;;;14.33;6.42;;;;;;;12.95;72.97;100617.88;1693544;85;21059;-73
2024/04/09 01:42:35;;;;;;;13.48;6.60;;;;;;;12.93;73.09;100615.34;1693727;83;21023;-73
2024/04/09 01:45:05;;;;;;;13.13;6.80;;;;;;;12.90;73.09;100609.41;1693501;84;21054;-73
2024/04/09 01:47:34;;;;;;;14.80;6.65;;;;;;;12.85;73.17;100612.78;1693611;84;21435;-74
2024/04/09 01:50:05;;;;;;;15.65;6.85;;;;;;;12.79;73.36;100609.48;1693598;84;21063;-74
2024/04/09 01:52:34;;;;;;;17.55;7.17;;;;;;;12.75;73.59;100608.20;1693870;85;21046;-74
2024/04/09 01:55:05;;;;;;;15.93;6.65;;;;;;;12.70;73.73;100609.35;1693700;85;21086;-74
2024/04/09 01:57:33;;;;;;;14.00;6.80;;;;;;;12.67;73.88;100612.52;1693789;84;21082;-74
2024/04/09 02:00:11;;;;;;;15.68;6.70;;;;;;;12.65;74.00;100612.72;1693689;85;21050;-72
2024/04/09 02:02:34;;;;;;;16.65;7.20;;;;;;;12.64;74.17;100611.55;1692586;85;21035;-75
2024/04/09 02:05:04;;;;;;;14.83;6.72;;;;;;;12.62;74.36;100613.66;1693675;84;21047;-74
2024/04/09 02:07:33;;;;;;;13.40;6.53;;;;;;;12.59;74.48;100612.17;1693542;85;20995;-75
2024/04/09 02:10:03;;;;;;;15.18;7.03;;;;;;;12.57;74.64;100618.92;1693629;84;21019;-74
2024/04/09 02:12:32;;;;;;;14.65;6.80;;;;;;;12.53;74.78;100619.02;1666809;85;21042;-75
2024/04/09 02:15:00;;;;;;;16.02;7.42;;;;;;;12.51;74.96;100609.60;1693475;84;21062;-72
2024/04/09 02:17:30;;;;;;;12.03;6.15;;;;;;;12.50;75.12;100609.80;1693567;85;21078;-71
2024/04/09 02:19:59;;;;;;;13.48;6.40;;;;;;;12.50;75.11;100612.03;1693541;85;21516;-74
2024/04/09 02:22:30;;;;;;;14.07;6.95;;;;;;;12.49;75.10;100616.36;1693753;85;20987;-74
2024/04/09 02:24:59;;;;;;;15.40;6.45;;;;;;;12.49;75.16;100621.33;1693824;85;21070;-74
2024/04/09 02:27:27;;;;;;;17.92;7.15;;;;;;;12.50;75.31;100618.05;1693503;84;21102;-74
2024/04/09 02:29:59;;;;;;;19.98;7.17;;;;;;;12.50;75.50;100618.05;1693708;85;21043;-73
2024/04/09 02:32:26;;;;;;;15.58;7.03;;;;;;;12.48;75.56;100624.28;1693547;85;21023;-73
2024/04/09 02:34:55;;;;;;;17.07;7.30;;;;;;;12.44;75.72;100621.62;1693498;84;21079;-73
2024/04/09 02:37:23;;;;;;;16.50;7.37;;;;;;;12.38;75.85;100622.76;1693599;85;21062;-74
2024/04/09 02:39:52;;;;;;;19.40;7.20;;;;;;;12.33;76.08;100624.39;1693506;84;21050;-73
2024/04/09 02:42:20;;;;;;;12.60;6.33;;;;;;;12.31;76.22;100623.22;1693757;85;21022;-74
2024/04/09 02:44:49;;;;;;;13.70;6.47;;;;;;;12.28;76.31;100622.78;1693708;85;21071;-71
2024/04/09 02:47:18;;;;;;;15.98;6.87;;;;;;;12.26;76.46;100627.63;1693570;85;21051;-74
2024/04/09 02:49:47;;;;;;;17.95;6.85;;;;;;;12.24;76.63;100633.33;1693615;83;21078;-74
2024/04/09 02:52:17;;;;;;;15.85;7.05;;;;;;;12.23;76.78;100633.01;1693494;83;20991;-74
2024/04/09 02:54:45;;;;;;;14.18;7.33;;;;;;;12.25;76.91;100636.40;1693725;85;21027;-74
2024/04/09 02:57:14;;;;;;;15.40;7.37;;;;;;;12.25;76.96;100633.66;1693395;84;21034;-75
2024/04/09 02:59:43;;;;;;;14.78;7.60;;;;;;;12.27;77.09;100637.05;1693550;85;21079;-73
2024/04/09 03:02:12;;;;;;;15.32;7.42;;;;;;;12.27;77.07;100635.67;1693525;85;21022;-75
2024/04/09 03:04:41;;;;;;;14.85;6.83;;;;;;;12.28;77.04;100640.11;1693673;84;21028;-73
2024/04/09 03:07:09;;;;;;;14.03;7.67;;;;;;;12.28;77.09;100645.61;1693532;83;21102;-74
2024/04/09 03:09:38;;;;;;;18.82;7.33;;;;;;;12.26;77.18;100644.11;1693723;85;21102;-75
2024/04/09 03:12:07;;;;;;;20.48;10.90;;;;;;;12.25;77.20;100650.66;1693539;85;21066;-73
2024/04/09 03:14:36;;;;;;;19.32;8.48;;;;;;;12.21;77.19;100655.71;1693649;85;21257;-74
2024/04/09 03:17:06;;;;;;;15.48;7.60;;;;;;;12.18;77.36;100651.15;1693455;84;21062;-74
2024/04/09 03:19:35;;;;;;;13.70;7.40;;;;;;;12.16;77.41;100660.11;1693707;85;21051;-75
2024/04/09 03:22:03;;;;;;;19.92;7.72;;;;;;;12.12;77.48;100666.53;1693574;84;21031;-73
2024/04/09 03:24:31;;;;;;;15.78;6.97;;;;;;;12.05;77.63;100669.77;1693498;85;21527;-74
2024/04/09 03:27:00;;;;;;;15.95;7.17;;;;;;;11.95;77.86;100669.27;1693371;84;21054;-70
2024/04/09 03:29:29;;;;;;;17.57;7.53;;;;;;;11.89;78.18;100665.42;1693580;85;21067;-73
2024/04/09 03:31:57;;;;;;;11.28;6.40;;;;;;;11.90;78.32;100667.65;1693433;83;21152;-74
2024/04/09 03:34:26;;;;;;;16.95;7.37;;;;;;;11.90;78.44;100672.61;1693614;85;21033;-73
2024/04/09 03:36:54;;;;;;;16.07;7.42;;;;;;;11.94;78.65;100675.81;1693568;85;21046;-73
2024/04/09 03:39:23;;;;;;;15.30;7.40;;;;;;;11.94;78.71;100668.42;1693606;84;21028;-73
2024/04/09 03:41:51;;;;;;;21.17;7.22;;;;;;;11.94;78.70;100668.95;1693580;84;21133;-73
2024/04/09 03:44:19;;;;;;;16.32;7.47;;;;;;;11.96;78.81;100669.59;1693466;84;21086;-74
2024/04/09 03:46:48;;;;;;;16.30;7.25;;;;;;;11.98;78.92;100667.50;1666101;85;21046;-75
2024/04/09 03:49:17;;;;;;;16.32;7.80;;;;;;;11.99;78.98;100674.69;1693694;84;21284;-74
2024/04/09 03:51:46;;;;;;;17.23;7.03;;;;;;;11.98;78.94;100674.36;1693841;84;21068;-74
2024/04/09 03:54:15;;;;;;;19.12;7.87;;;;;;;11.97;79.02;100672.66;1693718;84;21031;-73
2024/04/09 03:56:44;;;;;;;15.38;7.37;;;;;;;11.99;79.13;100680.18;1693472;85;21039;-74
2024/04/09 03:59:12;;;;;;;18.60;7.55;;;;;;;11.97;79.09;100687.77;1693651;85;21078;-74
2024/04/09 04:01:41;;;;;;;22.25;8.40;;;;;;;11.94;79.08;100683.52;1693474;85;21030;-75
2024/04/09 04:04:09;;;;;;;18.17;7.70;;;;;;;11.94;79.26;100674.44;1693621;85;21082;-75
2024/04/09 04:06:38;;;;;;;21.87;8.13;;;;;;;11.97;79.33;100683.12;1666488;85;21007;-73
2024/04/09 04:09:08;;;;;;;20.30;8.18;;;;;;;11.98;79.45;100688.94;1693682;85;21026;-75
2024/04/09 04:11:37;;;;;;;17.48;8.10;;;;;;;12.01;79.54;100683.05;1693447;84;21046;-74
2024/04/09 04:14:05;;;;;;;20.50;8.30;;;;;;;12.04;79.54;100684.55;1693477;84;21525;-75
2024/04/09 04:16:34;;;;;;;16.60;7.80;;;;;;;12.07;79.54;100689.64;1693601;84;21098;-74
2024/04/09 04:19:04;;;;;;;17.20;7.65;;;;;;;12.13;79.51;100689.36;1693429;84;21478;-74
2024/04/09 04:21:33;;;;;;;19.10;8.10;;;;;;;12.17;79.35;100686.02;1693606;84;21031;-75
2024/04/09 04:24:01;;;;;;;19.50;8.33;;;;;;;12.22;79.07;100688.16;1693446;85;21458;-74
2024/04/09 04:26:30;;;;;;;18.77;8.35;;;;;;;12.27;78.89;100689.77;1690547;84;21090;-74
2024/04/09 04:28:59;;;;;;;18.90;7.47;;;;;;;12.31;78.65;100693.81;1673313;86;21353;-75
2024/04/09 04:31:27;;;;;;;26.45;9.63;;;;;;;12.36;78.39;100686.69;1673426;86;21099;-76
2024/04/09 04:33:56;;;;;;;24.47;8.15;;;;;;;12.42;78.24;100685.55;1673319;86;21048;-74
2024/04/09 04:36:25;;;;;;;17.80;7.55;;;;;;;12.47;78.08;100692.14;1673295;86;21059;-73
2024/04/09 04:38:53;;;;;;;22.07;9.00;;;;;;;12.56;77.46;100687.32;1673346;86;21103;-74
2024/04/09 04:41:22;;;;;;;19.87;8.25;;;;;;;12.65;76.80;100690.22;1673476;86;21000;-74
2024/04/09 04:43:55;;;;;;;16.32;8.23;;;;;;;12.76;76.37;100689.64;1673267;86;21058;-75
2024/04/09 04:46:23;;;;;;;20.68;8.60;;;;;;;12.84;75.71;100680.36;1673322;85;21508;-75
2024/04/09 04:48:51;;;;;;;13.00;5.97;;;;;;;12.95;75.31;100690.77;1673283;86;21565;-74
2024/04/09 04:51:20;;;;;;;11.10;4.90;;;;;;;13.08;74.78;100685.34;1673263;86;21075;-75
2024/04/09 04:53:48;;;;;;;12.90;4.53;;;;;;;13.28;73.87;100693.68;1673492;85;21545;-75
2024/04/09 04:56:16;;;;;;;11.30;4.60;;;;;;;13.54;72.36;100690.97;1673291;86;21538;-74
2024/04/09 04:58:45;;;;;;;9.95;4.45;;;;;;;13.82;70.90;100697.69;1673272;86;21040;-75
2024/04/09 05:01:13;;;;;;;12.05;4.50;;;;;;;14.06;69.25;100693.44;1673330;84;21060;-75
2024/04/09 05:03:42;;;;;;;9.45;3.95;;;;;;;14.25;67.85;100695.32;1673256;85;21095;-75
2024/04/09 05:06:12;;;;;;;7.28;3.77;;;;;;;14.41;66.62;100696.81;1673270;86;21051;-72
2024/04/09 05:08:40;;;;;;;10.45;4.30;;;;;;;14.53;65.37;100697.02;1673416;86;21036;-75
2024/04/09 05:11:09;;;;;;;6.67;3.70;;;;;;;14.61;64.51;100692.65;1673506;86;21035;-73
2024/04/09 05:13:37;;;;;;;6.42;3.70;;;;;;;14.67;63.74;100693.16;1673296;86;21103;-74
2024/04/09 05:16:06;;;;;;;7.42;3.87;;;;;;;14.74;63.17;100691.75;1673301;86;21055;-75
2024/04/09 05:18:34;;;;;;;8.75;4.08;;;;;;;14.79;62.58;100688.66;1673386;84;21487;-75
2024/04/09 05:21:04;;;;;;;28.90;5.15;;;;;;;14.85;62.00;100686.94;1673511;86;21036;-75
2024/04/09 05:23:33;;;;;;;16.67;3.75;;;;;;;14.91;61.71;100692.95;1673571;85;21015;-75
2024/04/09 05:26:02;;;;;;;10.75;3.52;;;;;;;14.94;61.43;100697.19;1673532;86;21060;-77
2024/04/09 05:28:32;;;;;;;10.30;3.67;;;;;;;15.00;60.88;100701.86;1690101;84;21034;-77
2024/04/09 05:31:00;;;;;;;12.05;3.30;;;;;;;15.05;60.41;100704.28;1693671;85;21066;-72
2024/04/09 05:33:29;;;;;;;7.92;3.80;;;;;;;15.12;59.85;100705.63;1693786;85;21078;-75
2024/04/09 05:35:58;;;;;;;10.50;3.40;;;;;;;15.17;59.56;100703.05;1666503;85;21051;-75
2024/04/09 05:38:27;;;;;;;8.28;3.87;;;;;;;15.21;59.51;100703.77;1693663;83;21074;-75
2024/04/09 05:40:57;;;;;;;11.95;3.83;;;;;;;15.25;59.29;100702.79;1693674;84;21030;-74
2024/04/09 05:43:26;;;;;;;9.55;3.05;;;;;;;15.29;59.25;100701.28;1693778;85;21023;-76
2024/04/09 05:45:55;;;;;;;9.53;3.33;;;;;;;15.32;59.14;100699.99;1693513;83;21498;-76
2024/04/09 05:48:24;;;;;;;10.63;3.30;;;;;;;15.35;58.90;100700.39;1666151;85;21506;-76
2024/04/09 05:50:54;;;;;;;8.80;3.55;;;;;;;15.41;58.78;100702.80;1693544;83;21042;-75
2024/04/09 05:53:22;;;;;;;9.93;3.20;;;;;;;15.45;58.53;100707.66;1666096;85;21097;-74
2024/04/09 05:55:55;;;;;;;12.33;3.65;;;;;;;15.49;58.25;100710.29;1693658;85;21118;-75
2024/04/09 05:58:24;;;;;;;11.43;3.20;;;;;;;15.55;57.86;100709.93;1693912;85;21002;-76
2024/04/09 06:00:55;;;;;;;9.55;3.25;;;;;;;15.60;57.60;100710.67;1693692;84;21054;-77
2024/04/09 06:03:24;;;;;;;7.70;2.80;;;;;;;15.69;57.01;100714.36;1667137;85;21062;-74
2024/04/09 06:05:55;;;;;;;10.25;3.55;;;;;;;15.75;56.68;100710.70;1693525;85;21006;-78
2024/04/09 06:08:26;;;;;;;10.68;3.40;;;;;;;15.81;56.48;100713.95;1667467;85;21489;-76
2024/04/09 06:10:55;;;;;;;18.23;9.23;;;;;;;15.88;56.07;100706.98;1693663;84;21049;-76
2024/04/09 06:13:24;;;;;;;8.45;3.45;;;;;;;15.96;55.81;100713.61;1693398;84;21090;-77
2024/04/09 06:15:53;;;;;;;8.45;3.17;;;;;;;16.02;55.68;100716.86;1693476;85;21533;-76
2024/04/09 06:18:22;;;;;;;11.57;3.50;;;;;;;16.07;55.34;100716.18;1693477;84;21505;-76
2024/04/09 06:20:51;;;;;;;9.08;3.42;;;;;;;16.15;54.61;100715.36;1693514;85;21110;-76
2024/04/09 06:23:21;;;;;;;9.70;3.50;;;;;;;16.24;54.27;100718.68;1693386;85;21102;-76
2024/04/09 06:25:58;;;;;;;15.83;3.47;;;;;;;16.33;54.01;100723.41;1693386;84;21094;-75
2024/04/09 06:28:27;;;;;;;11.43;3.85;;;;;;;16.38;53.96;100723.58;1693857;85;21063;-75
2024/04/09 06:30:56;;;;;;;8.93;3.47;;;;;;;16.48;53.86;100721.13;1693500;85;21059;-76
2024/04/09 06:33:25;;;;;;;11.22;4.30;;;;;;;16.54;53.74;100716.60;1693788;84;21431;-76
2024/04/09 06:35:55;;;;;;;10.45;3.83;;;;;;;16.60;53.52;100717.91;1693442;84;21490;-75
2024/04/09 06:38:25;;;;;;;13.25;3.20;;;;;;;16.66;53.43;100721.72;1693313;85;21559;-75
2024/04/09 06:40:55;;;;;;;7.75;3.30;;;;;;;16.75;53.23;100719.80;1665826;85;21466;-75
2024/04/09 06:43:23;;;;;;;7.87;3.58;;;;;;;16.84;52.92;100720.88;1693489;85;21042;-75
2024/04/09 06:45:52;;;;;;;6.20;3.25;;;;;;;16.92;52.56;100717.28;1693509;85;21546;-78
2024/04/09 06:48:21;;;;;;;9.58;3.47;;;;;;;17.02;52.15;100720.35;1693436;85;21454;-76
2024/04/09 06:50:51;;;;;;;8.28;3.50;;;;;;;17.08;51.76;100718.58;1693560;83;21078;-76
2024/04/09 06:53:20;;;;;;;16.48;3.80;;;;;;;17.19;51.55;100719.71;1693573;84;21078;-76
2024/04/09 06:55:49;;;;;;;10.55;3.35;;;;;;;17.26;51.03;100715.77;1693336;85;21046;-75
2024/04/09 06:58:18;;;;;;;8.30;3.20;;;;;;;17.38;50.56;100712.52;1693862;84;21063;-76
2024/04/09 07:00:48;;;;;;;10.93;2.67;;;;;;;17.49;50.30;100721.10;1666513;85;21039;-77
2024/04/09 07:03:17;;;;;;;8.40;2.40;;;;;;;17.60;50.09;100714.25;1693359;85;21011;-76
2024/04/09 07:05:46;;;;;;;8.93;2.33;;;;;;;17.71;49.14;100711.23;1693335;85;21482;-75
2024/04/09 07:08:15;;;;;;;5.22;2.47;;;;;;;17.92;49.07;100718.99;1693551;83;21508;-77
2024/04/09 07:10:43;;;;;;;9.58;2.40;;;;;;;18.12;49.01;100715.05;1665867;85;21051;-76
2024/04/09 07:13:12;;;;;;;15.03;2.58;;;;;;;18.43;48.68;100711.95;1693350;85;21477;-75
2024/04/09 07:15:40;;;;;;;4.75;2.20;;;;;;;18.79;48.08;100716.40;1693446;85;21522;-76
2024/04/09 07:18:10;;;;;;;5.40;2.12;;;;;;;19.09;47.38;100712.62;1693426;85;21508;-73
2024/04/09 07:20:38;;;;;;;7.97;2.87;;;;;;;19.30;47.10;100714.72;1666256;85;21050;-77
2024/04/09 07:23:07;;;;;;;5.47;2.17;;;;;;;19.47;46.37;100716.16;1693103;83;21478;-76
2024/04/09 07:25:38;;;;;;;6.67;2.35;;;;;;;19.60;45.83;100711.73;1693235;85;21015;-77
2024/04/09 07:28:08;;;;;;;3.72;2.15;;;;;;;19.65;45.19;100706.27;1668595;84;21513;-75
2024/04/09 07:30:37;;;;;;;3.77;2.10;;;;;;;19.69;44.92;100708.01;1701020;84;21477;-76
2024/04/09 07:33:06;;;;;;;4.05;2.12;;;;;;;19.75;44.55;100705.62;1700547;84;21483;-73
2024/04/09 07:35:37;;;;;;;6.78;2.75;;;;;;;19.77;44.30;100709.83;1700589;84;21540;-74
2024/04/09 07:38:07;;;;;;;4.40;2.42;;;;;;;19.81;44.29;100706.00;1673478;84;21093;-75
2024/04/09 07:40:36;;;;;;;4.08;2.50;;;;;;;19.85;44.17;100702.47;1673467;84;21114;-76
2024/04/09 07:43:04;;;;;;;4.60;2.25;;;;;;;19.90;43.78;100699.77;1700624;84;21441;-75
2024/04/09 07:45:33;;;;;;;5.42;2.47;;;;;;;20.06;43.92;100702.81;1700715;84;21022;-75
2024/04/09 07:48:03;;;;;;;5.37;2.33;;;;;;;20.40;43.61;100711.49;1700642;84;21030;-73
2024/04/09 07:50:33;;;;;;;5.25;2.20;;;;;;;20.85;42.83;100694.63;1700915;84;21010;-75
2024/04/09 07:53:01;;;;;;;3.87;2.15;;;;;;;21.37;41.47;100691.37;1700591;84;21458;-75
2024/04/09 07:55:31;;;;;;;4.20;1.75;;;;;;;21.96;40.58;100695.61;1700712;84;21030;-77
2024/04/09 07:57:59;;;;;;;4.08;1.60;;;;;;;22.50;39.39;100689.93;1716339;82;21049;-77
2024/04/09 08:00:28;;;;;;;8.78;1.92;;;;;;;23.02;38.56;100680.76;1750213;80;21034;-77
2024/04/09 08:02:57;;;;;;;4.08;1.80;;;;;;;23.49;37.81;100684.84;1723187;80;21034;-83
2024/04/09 08:05:27;;;;;;;10.93;2.20;;;;;;;24.01;37.17;100681.02;1779846;80;21055;-85
2024/04/09 08:07:58;;;;;;;5.45;2.25;;;;;;;24.62;35.35;100672.58;1714035;82;21122;-84
2024/04/09 08:10:27;;;;;;;3.22;1.70;;;;;;;25.14;34.17;100671.32;1691180;83;21005;-82
2024/04/09 08:12:57;;;;;;;4.25;2.35;;;;;;;25.46;33.79;100666.12;1672417;84;21066;-82
2024/04/09 08:15:26;;;;;;;7.83;2.10;;;;;;;25.94;33.34;100664.95;1684196;82;21134;-83
2024/04/09 08:17:56;;;;;;;3.72;1.72;;;;;;;26.18;32.53;100660.27;1727496;83;21515;-81
2024/04/09 08:20:25;;;;;;;4.85;1.70;;;;;;;26.41;32.18;100655.86;1727417;83;21458;-83
2024/04/09 08:22:54;;;;;;;5.20;1.65;;;;;;;26.41;32.18;100655.86;1742813;82;21074;-82
2024/04/09 08:25:23;;;;;;;4.05;1.77;;;;;;;26.63;32.00;100652.53;1727677;83;20991;-83
2024/04/09 08:27:52;;;;;;;6.47;2.20;;;;;;;26.82;31.54;100649.23;1714295;82;22764;-81
2024/04/09 08:30:24;;;;;;;13.35;2.75;;;;;;;27.10;31.41;100660.73;1771075;81;21486;-83
2024/04/09 08:32:55;;;;;;;3.12;1.90;;;;;;;27.21;29.84;100652.41;1750672;81;21449;-83
2024/04/09 08:35:24;;;;;;;5.50;1.98;;;;;;;27.25;29.89;100652.08;1723526;83;21053;-83
2024/04/09 08:37:54;;;;;;;5.92;1.90;;;;;;;27.26;29.77;100648.13;1723367;83;21502;-82
2024/04/09 08:40:24;;;;;;;4.55;1.90;;;;;;;27.30;29.85;100646.38;1723557;83;21847;-81
2024/04/09 08:42:53;;;;;;;3.33;1.90;;;;;;;27.24;29.61;100646.75;1723437;82;21051;-80
2024/04/09 08:45:24;;;;;;;5.17;1.70;;;;;;;27.21;29.78;100642.57;1673815;83;21050;-81
2024/04/09 08:47:53;;;;;;;3.22;1.85;;;;;;;27.27;29.22;100635.73;1723662;82;21648;-78
2024/04/09 08:50:22;;;;;;;4.53;1.77;;;;;;;27.30;29.15;100641.32;1723670;83;21068;-80
2024/04/09 08:52:53;;;;;;;3.10;1.75;;;;;;;27.26;29.54;100634.05;1723644;83;21113;-81
2024/04/09 08:55:22;;;;;;;4.22;1.90;;;;;;;27.33;29.31;100627.52;1695323;83;21049;-80
2024/04/09 08:57:50;;;;;;;4.53;1.77;;;;;;;27.32;29.15;100634.28;1723318;82;21077;-80
2024/04/09 09:00:19;;;;;;;2.50;2.02;;;;;;;27.26;29.46;100625.61;1723355;83;21472;-78
2024/04/09 09:02:48;;;;;;;2.00;1.37;;;;;;;27.21;29.27;100627.09;1723528;82;21098;-80
2024/04/09 09:05:18;;;;;;;3.42;1.55;;;;;;;27.08;29.19;100631.49;1723835;82;21025;-83
2024/04/09 09:08:00;;;;;;;5.42;1.80;;;;;;;26.79;29.31;100629.31;1759631;81;21051;-82
2024/04/09 09:10:31;;;;;;;3.00;1.77;;;;;;;26.55;29.45;100629.30;1770417;81;21024;-81
2024/04/09 09:13:05;;;;;;;2.50;1.45;;;;;;;26.36;29.57;100625.00;1771291;81;21509;-81
2024/04/09 09:15:34;;;;;;;7.40;1.90;;;;;;;26.12;29.81;100628.31;1771155;81;21020;-82
2024/04/09 09:18:04;;;;;;;3.37;1.57;;;;;;;25.94;29.94;100629.85;1724840;81;21398;-79
2024/04/09 09:20:34;;;;;;;4.15;2.25;;;;;;;25.75;30.29;100627.50;1692724;83;21144;-81
2024/04/09 09:23:03;;;;;;;6.62;2.40;;;;;;;25.54;30.58;100620.61;1725280;83;21046;-82
2024/04/09 09:25:34;;;;;;;3.40;2.20;;;;;;;25.40;31.16;100623.80;1713059;83;21092;-78
2024/04/09 09:28:07;;;;;;;3.50;1.77;;;;;;;25.31;30.96;100618.49;1689137;85;21476;-81
2024/04/09 09:30:42;;;;;;;2.77;1.60;;;;;;;25.16;30.91;100613.81;1675319;85;21515;-81
2024/04/09 09:33:31;;;;;;;6.90;2.30;;;;;;;25.06;31.20;100620.89;1689169;83;21084;-77
2024/04/09 09:36:00;;;;;;;2.92;1.65;;;;;;;24.99;31.00;100617.56;1688825;85;21571;-77
2024/04/09 09:38:30;;;;;;;5.75;1.92;;;;;;;24.93;31.15;100606.06;1688919;85;21090;-75
2024/04/09 09:41:01;;;;;;;5.15;2.22;;;;;;;24.87;31.19;100605.81;1672367;85;21083;-77
2024/04/09 09:43:31;;;;;;;3.90;2.10;;;;;;;24.75;31.20;100606.15;1672449;86;21184;-73
2024/04/09 09:48:56;;;;;;;3.25;2.05;;;;;;;24.52;31.05;100601.16;1672582;86;21438;-76
2024/04/09 09:51:25;;;;;;;3.20;2.40;;;;;;;24.47;31.33;100603.98;1672341;85;21058;-76
2024/04/09 09:53:54;;;;;;;4.90;2.22;;;;;;;24.45;31.20;100595.03;1670964;86;21090;-77
2024/04/09 09:56:25;;;;;;;3.27;2.02;;;;;;;24.43;30.83;100600.08;1700511;84;21089;-78
2024/04/09 09:58:55;;;;;;;4.28;1.87;;;;;;;24.32;30.53;100593.11;1723094;83;21042;-78
2024/04/09 10:01:23;;;;;;;2.90;1.60;;;;;;;24.23;30.84;100597.58;1723114;83;21038;-75
2024/04/09 10:03:52;;;;;;;4.10;2.35;;;;;;;24.15;30.83;100596.75;1698804;83;21078;-77
2024/04/09 10:06:27;;;;;;;5.55;2.17;;;;;;;24.08;31.11;100601.81;1718373;83;21066;-78
2024/04/09 10:08:56;;;;;;;8.03;2.05;;;;;;;24.10;30.53;100583.33;1672612;86;21042;-76
2024/04/09 10:11:25;;;;;;;3.85;1.67;;;;;;;24.14;30.28;100599.28;1672701;86;21155;-75
2024/04/09 10:13:54;;;;;;;5.10;1.75;;;;;;;24.16;30.03;100592.00;1694097;85;21536;-73
2024/04/09 10:16:24;;;;;;;5.25;1.75;;;;;;;24.15;30.13;100589.76;1694440;85;21105;-75
2024/04/09 10:18:53;;;;;;;3.85;1.65;;;;;;;24.18;28.95;100586.95;1672373;86;21142;-75
2024/04/09 10:21:29;;;;;;;4.25;1.60;;;;;;;24.13;28.74;100594.80;1648058;85;21038;-77
2024/04/09 10:24:04;;;;;;;6.77;3.13;;;;;;;24.06;27.77;100591.45;1672781;86;21045;-75
2024/04/09 10:26:32;;;;;;;2.40;1.65;;;;;;;24.02;27.88;100602.34;1719052;83;21773;-75
2024/04/09 10:29:03;;;;;;;3.87;2.30;;;;;;;23.99;28.20;100594.52;1723483;83;21093;-80
2024/04/09 10:31:32;;;;;;;6.08;2.00;;;;;;;23.91;28.85;100584.45;1723564;83;21073;-82
2024/04/09 10:34:00;;;;;;;10.20;2.00;;;;;;;23.87;28.80;100595.36;1675421;83;21026;-82
2024/04/09 10:36:31;;;;;;;3.80;1.72;;;;;;;23.87;28.66;100591.17;1723677;82;21514;-81
2024/04/09 10:39:00;;;;;;;7.53;2.00;;;;;;;23.87;28.90;100586.13;1723182;83;21567;-75
2024/04/09 10:41:30;;;;;;;8.38;2.35;;;;;;;23.83;28.90;100590.61;1723236;82;21050;-75
2024/04/09 10:44:01;;;;;;;2.85;1.70;;;;;;;23.75;28.95;100584.18;1699026;83;21054;-75
2024/04/09 10:46:29;;;;;;;3.15;1.60;;;;;;;23.71;28.82;100581.11;1698968;83;21030;-75
2024/04/09 10:48:58;;;;;;;3.37;1.70;;;;;;;23.74;28.99;100576.91;1698817;83;21082;-77
2024/04/09 10:51:27;;;;;;;4.12;1.65;;;;;;;23.75;28.98;100572.43;1722988;83;21071;-76
2024/04/09 10:54:02;;;;;;;4.80;1.70;;;;;;;23.69;29.28;100577.19;1723081;83;21521;-75
2024/04/09 10:56:35;;;;;;;6.58;2.10;;;;;;;23.67;29.74;100564.04;1723403;83;21038;-78
2024/04/09 10:59:15;;;;;;;2.22;1.52;;;;;;;23.70;30.12;100566.28;1723134;83;21473;-74
2024/04/09 11:01:45;;;;;;;4.42;2.30;;;;;;;23.73;30.16;100566.84;1699348;83;21116;-75
2024/04/09 11:04:14;;;;;;;7.58;2.27;;;;;;;23.72;30.32;100553.41;1723305;82;21046;-76
2024/04/09 11:06:43;;;;;;;3.90;2.02;;;;;;;23.76;30.48;100552.28;1714174;83;21090;-77
2024/04/09 11:09:19;;;;;;;4.47;1.90;;;;;;;23.83;29.98;100560.67;1694302;85;21114;-75
2024/04/09 11:11:49;;;;;;;3.25;1.72;;;;;;;23.88;30.01;100555.06;1694466;85;21030;-74
2024/04/09 11:14:17;;;;;;;3.70;1.80;;;;;;;23.89;29.76;100548.91;1670871;85;21682;-74
2024/04/09 11:16:49;;;;;;;3.98;2.10;;;;;;;23.85;29.49;100551.43;1672578;86;21137;-76
2024/04/09 11:19:25;;;;;;;5.17;2.00;;;;;;;23.82;29.87;100550.59;1646057;86;21446;-75
2024/04/09 11:22:10;;;;;;;2.30;1.70;;;;;;;23.81;29.63;100550.31;1672340;86;21034;-74
2024/04/09 11:24:44;;;;;;;7.67;2.22;;;;;;;23.84;29.13;100546.95;1697451;82;21114;-74
2024/04/09 11:27:14;;;;;;;7.10;2.20;;;;;;;23.91;28.29;100534.06;1723091;83;21157;-75
2024/04/09 11:29:49;;;;;;;5.67;2.10;;;;;;;23.95;28.46;100540.77;1723022;83;21058;-74
2024/04/09 11:32:18;;;;;;;3.25;2.27;;;;;;;23.95;28.80;100525.38;1723025;83;21167;-75
2024/04/09 11:34:47;;;;;;;3.83;1.55;;;;;;;23.93;29.27;100529.02;1690808;83;21141;-74